sensor_id;sensor_type;location;lat;lon;timestamp;P1;durP1;ratioP1;P2;durP2;ratioP2
9208;SDS011;4639;48.862;9.188;2022-10-16T00:01:10;3.03;;;1.90;;
9208;SDS011;4639;48.862;9.188;2022-10-16T00:03:38;4.70;;;2.53;;
9208;SDS011;4639;48.862;9.188;2022-10-16T00:06:05;2.25;;;1.90;;
9208;SDS011;4639;48.862;9.188;2022-10-16T00:08:32;4.18;;;2.15;;
9208;SDS011;4639;48.862;9.188;2022-10-16T00:11:01;3.13;;;2.00;;
9208;SDS011;4639;48.862;9.188;2022-10-16T00:13:29;3.45;;;2.08;;
9208;SDS011;4639;48.862;9.188;2022-10-16T00:15:56;3.15;;;1.80;;
9208;SDS011;4639;48.862;9.188;2022-10-16T00:18:23;5.40;;;2.20;;
9208;SDS011;4639;48.862;9.188;2022-10-16T00:20:49;2.55;;;1.95;;
9208;SDS011;4639;48.862;9.188;2022-10-16T00:23:15;6.65;;;2.10;;
9208;SDS011;4639;48.862;9.188;2022-10-16T00:25:41;6.60;;;2.38;;
9208;SDS011;4639;48.862;9.188;2022-10-16T00:28:06;3.78;;;1.90;;
9208;SDS011;4639;48.862;9.188;2022-10-16T00:30:32;2.17;;;1.98;;
9208;SDS011;4639;48.862;9.188;2022-10-16T00:32:57;1.85;;;1.60;;
9208;SDS011;4639;48.862;9.188;2022-10-16T00:35:23;2.58;;;1.90;;
9208;SDS011;4639;48.862;9.188;2022-10-16T00:37:48;2.45;;;1.48;;
9208;SDS011;4639;48.862;9.188;2022-10-16T00:40:14;3.58;;;1.65;;
9208;SDS011;4639;48.862;9.188;2022-10-16T00:42:40;2.45;;;1.85;;
9208;SDS011;4639;48.862;9.188;2022-10-16T00:45:05;3.05;;;1.90;;
9208;SDS011;4639;48.862;9.188;2022-10-16T00:52:56;5.63;;;1.90;;
9208;SDS011;4639;48.862;9.188;2022-10-16T00:55:23;4.75;;;1.98;;
9208;SDS011;4639;48.862;9.188;2022-10-16T00:57:50;4.97;;;2.00;;
9208;SDS011;4639;48.862;9.188;2022-10-16T01:00:21;3.38;;;1.77;;
9208;SDS011;4639;48.862;9.188;2022-10-16T01:02:56;3.45;;;1.90;;
9208;SDS011;4639;48.862;9.188;2022-10-16T01:05:24;4.75;;;2.22;;
9208;SDS011;4639;48.862;9.188;2022-10-16T01:08:12;2.03;;;1.50;;
9208;SDS011;4639;48.862;9.188;2022-10-16T01:16:13;1.90;;;1.80;;
9208;SDS011;4639;48.862;9.188;2022-10-16T01:18:52;3.33;;;1.67;;
9208;SDS011;4639;48.862;9.188;2022-10-16T01:21:24;3.80;;;1.85;;
9208;SDS011;4639;48.862;9.188;2022-10-16T01:24:12;3.25;;;2.00;;
9208;SDS011;4639;48.862;9.188;2022-10-16T01:27:13;2.55;;;1.80;;
9208;SDS011;4639;48.862;9.188;2022-10-16T01:32:33;4.95;;;1.73;;
9208;SDS011;4639;48.862;9.188;2022-10-16T01:35:06;2.95;;;1.90;;
9208;SDS011;4639;48.862;9.188;2022-10-16T01:40:20;3.38;;;2.03;;
9208;SDS011;4639;48.862;9.188;2022-10-16T01:43:01;3.13;;;1.75;;
9208;SDS011;4639;48.862;9.188;2022-10-16T01:45:31;4.20;;;2.00;;
9208;SDS011;4639;48.862;9.188;2022-10-16T01:48:00;1.77;;;1.65;;
9208;SDS011;4639;48.862;9.188;2022-10-16T01:50:29;4.15;;;2.08;;
9208;SDS011;4639;48.862;9.188;2022-10-16T01:52:57;2.25;;;1.92;;
9208;SDS011;4639;48.862;9.188;2022-10-16T01:55:26;2.25;;;1.90;;
9208;SDS011;4639;48.862;9.188;2022-10-16T01:57:55;4.03;;;2.40;;
9208;SDS011;4639;48.862;9.188;2022-10-16T02:00:24;9.68;;;3.30;;
9208;SDS011;4639;48.862;9.188;2022-10-16T02:02:51;3.80;;;1.98;;
9208;SDS011;4639;48.862;9.188;2022-10-16T02:05:25;2.83;;;1.83;;
9208;SDS011;4639;48.862;9.188;2022-10-16T02:07:54;4.15;;;2.05;;
9208;SDS011;4639;48.862;9.188;2022-10-16T02:10:20;7.18;;;1.80;;
9208;SDS011;4639;48.862;9.188;2022-10-16T02:12:50;2.47;;;2.00;;
9208;SDS011;4639;48.862;9.188;2022-10-16T02:15:41;2.92;;;2.03;;
9208;SDS011;4639;48.862;9.188;2022-10-16T02:18:06;2.67;;;2.00;;
9208;SDS011;4639;48.862;9.188;2022-10-16T02:20:36;2.88;;;1.98;;
9208;SDS011;4639;48.862;9.188;2022-10-16T02:23:12;4.35;;;2.03;;
9208;SDS011;4639;48.862;9.188;2022-10-16T02:25:43;4.30;;;1.98;;
9208;SDS011;4639;48.862;9.188;2022-10-16T02:28:22;3.40;;;2.17;;
9208;SDS011;4639;48.862;9.188;2022-10-16T02:30:57;4.07;;;1.95;;
9208;SDS011;4639;48.862;9.188;2022-10-16T02:33:26;2.28;;;1.50;;
9208;SDS011;4639;48.862;9.188;2022-10-16T02:35:54;2.35;;;1.77;;
9208;SDS011;4639;48.862;9.188;2022-10-16T02:38:21;1.98;;;1.60;;
9208;SDS011;4639;48.862;9.188;2022-10-16T02:40:47;6.63;;;2.15;;
9208;SDS011;4639;48.862;9.188;2022-10-16T02:43:13;4.00;;;1.90;;
9208;SDS011;4639;48.862;9.188;2022-10-16T02:45:39;3.75;;;1.98;;
9208;SDS011;4639;48.862;9.188;2022-10-16T02:48:05;3.17;;;1.88;;
9208;SDS011;4639;48.862;9.188;2022-10-16T02:50:31;2.78;;;2.20;;
9208;SDS011;4639;48.862;9.188;2022-10-16T02:52:56;5.18;;;1.80;;
9208;SDS011;4639;48.862;9.188;2022-10-16T02:55:22;3.28;;;2.05;;
9208;SDS011;4639;48.862;9.188;2022-10-16T02:57:47;6.72;;;1.80;;
9208;SDS011;4639;48.862;9.188;2022-10-16T03:00:14;5.88;;;2.00;;
9208;SDS011;4639;48.862;9.188;2022-10-16T03:02:40;4.10;;;1.80;;
9208;SDS011;4639;48.862;9.188;2022-10-16T03:05:06;10.25;;;2.17;;
9208;SDS011;4639;48.862;9.188;2022-10-16T03:07:32;4.82;;;2.10;;
9208;SDS011;4639;48.862;9.188;2022-10-16T03:09:58;4.18;;;1.95;;
9208;SDS011;4639;48.862;9.188;2022-10-16T03:12:26;4.03;;;1.85;;
9208;SDS011;4639;48.862;9.188;2022-10-16T03:14:52;3.33;;;1.90;;
9208;SDS011;4639;48.862;9.188;2022-10-16T03:17:18;3.33;;;2.15;;
9208;SDS011;4639;48.862;9.188;2022-10-16T03:19:43;4.35;;;2.10;;
9208;SDS011;4639;48.862;9.188;2022-10-16T03:22:09;2.08;;;1.65;;
9208;SDS011;4639;48.862;9.188;2022-10-16T03:24:35;5.07;;;1.60;;
9208;SDS011;4639;48.862;9.188;2022-10-16T03:27:00;6.05;;;2.28;;
9208;SDS011;4639;48.862;9.188;2022-10-16T03:29:26;2.60;;;1.80;;
9208;SDS011;4639;48.862;9.188;2022-10-16T03:31:54;5.25;;;2.00;;
9208;SDS011;4639;48.862;9.188;2022-10-16T03:34:20;6.68;;;1.90;;
9208;SDS011;4639;48.862;9.188;2022-10-16T03:36:45;5.20;;;2.33;;
9208;SDS011;4639;48.862;9.188;2022-10-16T03:39:11;4.72;;;1.90;;
9208;SDS011;4639;48.862;9.188;2022-10-16T03:41:36;3.35;;;2.08;;
9208;SDS011;4639;48.862;9.188;2022-10-16T03:44:02;4.90;;;1.70;;
9208;SDS011;4639;48.862;9.188;2022-10-16T03:46:27;3.15;;;1.80;;
9208;SDS011;4639;48.862;9.188;2022-10-16T03:48:54;3.95;;;2.00;;
9208;SDS011;4639;48.862;9.188;2022-10-16T03:51:20;4.07;;;1.80;;
9208;SDS011;4639;48.862;9.188;2022-10-16T03:53:45;4.93;;;1.73;;
9208;SDS011;4639;48.862;9.188;2022-10-16T03:56:11;6.68;;;2.10;;
9208;SDS011;4639;48.862;9.188;2022-10-16T03:58:36;3.45;;;1.67;;
9208;SDS011;4639;48.862;9.188;2022-10-16T04:01:02;3.15;;;1.77;;
9208;SDS011;4639;48.862;9.188;2022-10-16T04:03:28;3.58;;;2.20;;
9208;SDS011;4639;48.862;9.188;2022-10-16T04:05:53;4.10;;;1.80;;
9208;SDS011;4639;48.862;9.188;2022-10-16T04:08:19;3.55;;;1.80;;
9208;SDS011;4639;48.862;9.188;2022-10-16T04:10:45;6.05;;;2.28;;
9208;SDS011;4639;48.862;9.188;2022-10-16T04:13:11;3.92;;;1.55;;
9208;SDS011;4639;48.862;9.188;2022-10-16T04:15:37;4.10;;;1.80;;
9208;SDS011;4639;48.862;9.188;2022-10-16T04:18:03;3.00;;;1.73;;
9208;SDS011;4639;48.862;9.188;2022-10-16T04:20:29;5.28;;;1.83;;
9208;SDS011;4639;48.862;9.188;2022-10-16T04:22:54;3.97;;;2.00;;
9208;SDS011;4639;48.862;9.188;2022-10-16T04:25:21;3.60;;;1.80;;
9208;SDS011;4639;48.862;9.188;2022-10-16T04:27:46;1.95;;;1.67;;
9208;SDS011;4639;48.862;9.188;2022-10-16T04:30:12;1.90;;;1.70;;
9208;SDS011;4639;48.862;9.188;2022-10-16T04:32:38;5.72;;;1.90;;
9208;SDS011;4639;48.862;9.188;2022-10-16T04:35:04;5.72;;;1.95;;
9208;SDS011;4639;48.862;9.188;2022-10-16T04:37:30;3.60;;;2.03;;
9208;SDS011;4639;48.862;9.188;2022-10-16T04:39:56;4.00;;;1.70;;
9208;SDS011;4639;48.862;9.188;2022-10-16T04:42:21;4.43;;;1.70;;
9208;SDS011;4639;48.862;9.188;2022-10-16T04:44:47;2.17;;;1.83;;
9208;SDS011;4639;48.862;9.188;2022-10-16T04:47:13;3.47;;;2.13;;
9208;SDS011;4639;48.862;9.188;2022-10-16T04:49:38;3.80;;;1.98;;
9208;SDS011;4639;48.862;9.188;2022-10-16T04:52:04;4.63;;;1.75;;
9208;SDS011;4639;48.862;9.188;2022-10-16T04:54:30;6.25;;;1.80;;
9208;SDS011;4639;48.862;9.188;2022-10-16T04:56:55;3.08;;;2.00;;
9208;SDS011;4639;48.862;9.188;2022-10-16T04:59:21;4.53;;;1.90;;
9208;SDS011;4639;48.862;9.188;2022-10-16T05:01:47;3.35;;;1.85;;
9208;SDS011;4639;48.862;9.188;2022-10-16T05:04:13;4.50;;;2.17;;
9208;SDS011;4639;48.862;9.188;2022-10-16T05:06:40;7.80;;;2.58;;
9208;SDS011;4639;48.862;9.188;2022-10-16T05:09:06;4.47;;;1.55;;
9208;SDS011;4639;48.862;9.188;2022-10-16T05:11:32;4.85;;;1.90;;
9208;SDS011;4639;48.862;9.188;2022-10-16T05:13:58;2.60;;;1.80;;
9208;SDS011;4639;48.862;9.188;2022-10-16T05:16:24;3.90;;;1.98;;
9208;SDS011;4639;48.862;9.188;2022-10-16T05:18:51;8.73;;;2.08;;
9208;SDS011;4639;48.862;9.188;2022-10-16T05:21:17;3.67;;;1.55;;
9208;SDS011;4639;48.862;9.188;2022-10-16T05:23:42;3.72;;;1.90;;
9208;SDS011;4639;48.862;9.188;2022-10-16T05:26:08;2.53;;;1.70;;
9208;SDS011;4639;48.862;9.188;2022-10-16T05:28:33;7.45;;;2.10;;
9208;SDS011;4639;48.862;9.188;2022-10-16T05:31:03;9.82;;;2.15;;
9208;SDS011;4639;48.862;9.188;2022-10-16T05:33:32;5.97;;;2.00;;
9208;SDS011;4639;48.862;9.188;2022-10-16T05:36:05;3.33;;;1.67;;
9208;SDS011;4639;48.862;9.188;2022-10-16T05:38:32;3.15;;;2.00;;
9208;SDS011;4639;48.862;9.188;2022-10-16T05:41:02;9.02;;;2.10;;
9208;SDS011;4639;48.862;9.188;2022-10-16T05:43:28;4.55;;;1.80;;
9208;SDS011;4639;48.862;9.188;2022-10-16T05:45:58;2.53;;;2.05;;
9208;SDS011;4639;48.862;9.188;2022-10-16T05:48:25;3.13;;;2.00;;
9208;SDS011;4639;48.862;9.188;2022-10-16T05:53:28;4.95;;;1.90;;
9208;SDS011;4639;48.862;9.188;2022-10-16T05:55:55;3.25;;;1.98;;
9208;SDS011;4639;48.862;9.188;2022-10-16T05:58:21;5.22;;;1.92;;
9208;SDS011;4639;48.862;9.188;2022-10-16T06:00:58;4.68;;;1.80;;
9208;SDS011;4639;48.862;9.188;2022-10-16T06:03:28;4.50;;;2.08;;
9208;SDS011;4639;48.862;9.188;2022-10-16T06:05:54;7.20;;;2.03;;
9208;SDS011;4639;48.862;9.188;2022-10-16T06:08:20;2.72;;;1.77;;
9208;SDS011;4639;48.862;9.188;2022-10-16T06:10:47;4.88;;;1.85;;
9208;SDS011;4639;48.862;9.188;2022-10-16T06:13:13;5.03;;;2.00;;
9208;SDS011;4639;48.862;9.188;2022-10-16T06:15:41;6.78;;;2.05;;
9208;SDS011;4639;48.862;9.188;2022-10-16T06:18:07;7.05;;;2.42;;
9208;SDS011;4639;48.862;9.188;2022-10-16T06:20:34;3.75;;;2.15;;
9208;SDS011;4639;48.862;9.188;2022-10-16T06:22:59;8.07;;;2.42;;
9208;SDS011;4639;48.862;9.188;2022-10-16T06:25:25;6.05;;;2.47;;
9208;SDS011;4639;48.862;9.188;2022-10-16T06:27:51;6.47;;;2.75;;
9208;SDS011;4639;48.862;9.188;2022-10-16T06:30:16;4.18;;;2.50;;
9208;SDS011;4639;48.862;9.188;2022-10-16T06:32:42;7.97;;;2.22;;
9208;SDS011;4639;48.862;9.188;2022-10-16T06:35:07;5.65;;;2.50;;
9208;SDS011;4639;48.862;9.188;2022-10-16T06:37:33;3.33;;;2.45;;
9208;SDS011;4639;48.862;9.188;2022-10-16T06:39:58;3.50;;;2.10;;
9208;SDS011;4639;48.862;9.188;2022-10-16T06:42:25;4.22;;;2.30;;
9208;SDS011;4639;48.862;9.188;2022-10-16T06:44:50;4.38;;;2.50;;
9208;SDS011;4639;48.862;9.188;2022-10-16T06:47:16;3.72;;;2.13;;
9208;SDS011;4639;48.862;9.188;2022-10-16T06:49:41;2.83;;;2.28;;
9208;SDS011;4639;48.862;9.188;2022-10-16T06:52:07;3.28;;;2.42;;
9208;SDS011;4639;48.862;9.188;2022-10-16T06:54:33;4.90;;;2.50;;
9208;SDS011;4639;48.862;9.188;2022-10-16T06:56:58;6.35;;;2.03;;
9208;SDS011;4639;48.862;9.188;2022-10-16T06:59:25;3.85;;;2.13;;
9208;SDS011;4639;48.862;9.188;2022-10-16T07:01:50;3.83;;;2.53;;
9208;SDS011;4639;48.862;9.188;2022-10-16T07:04:16;2.40;;;1.98;;
9208;SDS011;4639;48.862;9.188;2022-10-16T07:07:00;3.22;;;1.90;;
9208;SDS011;4639;48.862;9.188;2022-10-16T07:09:25;3.47;;;2.10;;
9208;SDS011;4639;48.862;9.188;2022-10-16T07:11:51;4.95;;;2.08;;
9208;SDS011;4639;48.862;9.188;2022-10-16T07:14:18;3.97;;;2.15;;
9208;SDS011;4639;48.862;9.188;2022-10-16T07:16:45;3.70;;;2.40;;
9208;SDS011;4639;48.862;9.188;2022-10-16T07:19:11;5.45;;;2.33;;
9208;SDS011;4639;48.862;9.188;2022-10-16T07:21:39;3.90;;;2.17;;
9208;SDS011;4639;48.862;9.188;2022-10-16T07:24:06;5.05;;;2.40;;
9208;SDS011;4639;48.862;9.188;2022-10-16T07:26:35;6.00;;;2.40;;
9208;SDS011;4639;48.862;9.188;2022-10-16T07:29:02;2.35;;;2.15;;
9208;SDS011;4639;48.862;9.188;2022-10-16T07:31:28;5.47;;;2.45;;
9208;SDS011;4639;48.862;9.188;2022-10-16T07:33:54;3.75;;;2.35;;
9208;SDS011;4639;48.862;9.188;2022-10-16T07:36:20;3.05;;;2.40;;
9208;SDS011;4639;48.862;9.188;2022-10-16T07:38:46;5.03;;;2.50;;
9208;SDS011;4639;48.862;9.188;2022-10-16T07:41:16;4.60;;;2.85;;
9208;SDS011;4639;48.862;9.188;2022-10-16T07:43:46;7.60;;;3.05;;
9208;SDS011;4639;48.862;9.188;2022-10-16T07:46:16;8.00;;;4.05;;
9208;SDS011;4639;48.862;9.188;2022-10-16T07:48:43;7.35;;;3.60;;
9208;SDS011;4639;48.862;9.188;2022-10-16T07:51:12;6.72;;;4.00;;
9208;SDS011;4639;48.862;9.188;2022-10-16T07:53:42;6.57;;;3.60;;
9208;SDS011;4639;48.862;9.188;2022-10-16T07:56:07;7.03;;;4.20;;
9208;SDS011;4639;48.862;9.188;2022-10-16T07:58:34;11.00;;;4.85;;
9208;SDS011;4639;48.862;9.188;2022-10-16T08:01:05;8.10;;;4.90;;
9208;SDS011;4639;48.862;9.188;2022-10-16T08:03:33;6.38;;;2.88;;
9208;SDS011;4639;48.862;9.188;2022-10-16T08:05:59;6.57;;;3.65;;
9208;SDS011;4639;48.862;9.188;2022-10-16T08:08:25;7.57;;;3.70;;
9208;SDS011;4639;48.862;9.188;2022-10-16T08:10:51;7.85;;;3.47;;
9208;SDS011;4639;48.862;9.188;2022-10-16T08:13:17;7.32;;;2.40;;
9208;SDS011;4639;48.862;9.188;2022-10-16T08:15:43;8.73;;;2.38;;
9208;SDS011;4639;48.862;9.188;2022-10-16T08:18:10;3.47;;;2.40;;
9208;SDS011;4639;48.862;9.188;2022-10-16T08:20:36;6.25;;;2.10;;
9208;SDS011;4639;48.862;9.188;2022-10-16T08:23:02;5.63;;;2.17;;
9208;SDS011;4639;48.862;9.188;2022-10-16T08:25:28;3.97;;;2.55;;
9208;SDS011;4639;48.862;9.188;2022-10-16T08:27:54;5.25;;;2.15;;
9208;SDS011;4639;48.862;9.188;2022-10-16T08:30:21;6.78;;;2.17;;
9208;SDS011;4639;48.862;9.188;2022-10-16T08:32:47;6.07;;;1.85;;
9208;SDS011;4639;48.862;9.188;2022-10-16T08:35:13;3.80;;;2.22;;
9208;SDS011;4639;48.862;9.188;2022-10-16T08:37:39;5.72;;;2.25;;
9208;SDS011;4639;48.862;9.188;2022-10-16T08:40:06;4.32;;;2.17;;
9208;SDS011;4639;48.862;9.188;2022-10-16T08:48:48;5.65;;;1.85;;
9208;SDS011;4639;48.862;9.188;2022-10-16T08:51:20;2.88;;;1.80;;
9208;SDS011;4639;48.862;9.188;2022-10-16T08:53:50;4.03;;;1.80;;
9208;SDS011;4639;48.862;9.188;2022-10-16T08:56:22;3.75;;;1.58;;
9208;SDS011;4639;48.862;9.188;2022-10-16T08:58:49;1.83;;;1.65;;
9208;SDS011;4639;48.862;9.188;2022-10-16T09:01:17;4.40;;;1.83;;
9208;SDS011;4639;48.862;9.188;2022-10-16T09:14:23;6.88;;;2.13;;
9208;SDS011;4639;48.862;9.188;2022-10-16T09:20:12;2.78;;;1.92;;
9208;SDS011;4639;48.862;9.188;2022-10-16T09:22:44;2.17;;;1.67;;
9208;SDS011;4639;48.862;9.188;2022-10-16T09:25:17;5.97;;;1.83;;
9208;SDS011;4639;48.862;9.188;2022-10-16T09:27:46;4.03;;;1.90;;
9208;SDS011;4639;48.862;9.188;2022-10-16T09:30:14;2.65;;;1.50;;
9208;SDS011;4639;48.862;9.188;2022-10-16T09:32:43;5.20;;;1.67;;
9208;SDS011;4639;48.862;9.188;2022-10-16T09:41:19;4.28;;;1.92;;
9208;SDS011;4639;48.862;9.188;2022-10-16T09:43:52;6.03;;;1.67;;
9208;SDS011;4639;48.862;9.188;2022-10-16T09:48:56;3.20;;;1.55;;
9208;SDS011;4639;48.862;9.188;2022-10-16T09:51:30;6.65;;;1.70;;
9208;SDS011;4639;48.862;9.188;2022-10-16T09:56:35;4.78;;;1.52;;
9208;SDS011;4639;48.862;9.188;2022-10-16T09:59:10;7.80;;;1.88;;
9208;SDS011;4639;48.862;9.188;2022-10-16T10:01:40;4.80;;;1.48;;
9208;SDS011;4639;48.862;9.188;2022-10-16T10:04:09;2.95;;;1.40;;
9208;SDS011;4639;48.862;9.188;2022-10-16T10:06:43;5.82;;;1.85;;
9208;SDS011;4639;48.862;9.188;2022-10-16T10:11:48;5.18;;;1.70;;
9208;SDS011;4639;48.862;9.188;2022-10-16T10:16:46;6.57;;;1.70;;
9208;SDS011;4639;48.862;9.188;2022-10-16T10:19:30;2.33;;;1.77;;
9208;SDS011;4639;48.862;9.188;2022-10-16T10:22:17;3.95;;;1.60;;
9208;SDS011;4639;48.862;9.188;2022-10-16T10:24:54;3.40;;;1.70;;
9208;SDS011;4639;48.862;9.188;2022-10-16T10:27:20;5.47;;;2.13;;
9208;SDS011;4639;48.862;9.188;2022-10-16T10:29:54;7.43;;;2.20;;
9208;SDS011;4639;48.862;9.188;2022-10-16T10:32:49;2.63;;;1.55;;
9208;SDS011;4639;48.862;9.188;2022-10-16T10:38:27;4.57;;;1.65;;
9208;SDS011;4639;48.862;9.188;2022-10-16T10:44:41;2.30;;;1.85;;
9208;SDS011;4639;48.862;9.188;2022-10-16T10:52:31;7.85;;;1.48;;
9208;SDS011;4639;48.862;9.188;2022-10-16T11:06:18;2.85;;;1.48;;
9208;SDS011;4639;48.862;9.188;2022-10-16T11:08:57;7.30;;;1.50;;
9208;SDS011;4639;48.862;9.188;2022-10-16T11:11:44;3.58;;;1.45;;
9208;SDS011;4639;48.862;9.188;2022-10-16T11:14:17;3.05;;;1.80;;
9208;SDS011;4639;48.862;9.188;2022-10-16T11:16:47;3.20;;;1.30;;
9208;SDS011;4639;48.862;9.188;2022-10-16T11:22:12;3.53;;;1.50;;
9208;SDS011;4639;48.862;9.188;2022-10-16T11:25:12;2.53;;;1.50;;
9208;SDS011;4639;48.862;9.188;2022-10-16T11:27:40;2.65;;;1.45;;
9208;SDS011;4639;48.862;9.188;2022-10-16T11:30:18;5.30;;;1.60;;
9208;SDS011;4639;48.862;9.188;2022-10-16T11:32:59;3.20;;;1.30;;
9208;SDS011;4639;48.862;9.188;2022-10-16T11:35:44;1.40;;;1.10;;
9208;SDS011;4639;48.862;9.188;2022-10-16T11:38:33;2.28;;;1.10;;
9208;SDS011;4639;48.862;9.188;2022-10-16T11:41:19;2.08;;;1.10;;
9208;SDS011;4639;48.862;9.188;2022-10-16T11:43:55;2.88;;;1.20;;
9208;SDS011;4639;48.862;9.188;2022-10-16T11:46:29;2.67;;;1.30;;
9208;SDS011;4639;48.862;9.188;2022-10-16T11:49:02;3.00;;;1.40;;
9208;SDS011;4639;48.862;9.188;2022-10-16T11:51:42;3.53;;;1.10;;
9208;SDS011;4639;48.862;9.188;2022-10-16T11:57:08;3.58;;;1.40;;
9208;SDS011;4639;48.862;9.188;2022-10-16T11:59:50;1.77;;;1.30;;
9208;SDS011;4639;48.862;9.188;2022-10-16T12:05:24;3.88;;;1.40;;
9208;SDS011;4639;48.862;9.188;2022-10-16T12:08:10;5.07;;;1.25;;
9208;SDS011;4639;48.862;9.188;2022-10-16T12:10:38;2.08;;;1.20;;
9208;SDS011;4639;48.862;9.188;2022-10-16T12:18:49;3.53;;;1.40;;
9208;SDS011;4639;48.862;9.188;2022-10-16T12:21:30;1.50;;;1.40;;
9208;SDS011;4639;48.862;9.188;2022-10-16T12:23:57;3.00;;;1.40;;
9208;SDS011;4639;48.862;9.188;2022-10-16T12:26:32;2.03;;;1.30;;
9208;SDS011;4639;48.862;9.188;2022-10-16T12:29:14;1.20;;;1.10;;
9208;SDS011;4639;48.862;9.188;2022-10-16T12:31:53;2.95;;;1.27;;
9208;SDS011;4639;48.862;9.188;2022-10-16T12:36:47;1.52;;;1.40;;
9208;SDS011;4639;48.862;9.188;2022-10-16T12:39:31;3.88;;;1.60;;
9208;SDS011;4639;48.862;9.188;2022-10-16T12:42:00;1.23;;;1.13;;
9208;SDS011;4639;48.862;9.188;2022-10-16T12:44:34;5.32;;;1.60;;
9208;SDS011;4639;48.862;9.188;2022-10-16T12:47:01;2.53;;;1.40;;
9208;SDS011;4639;48.862;9.188;2022-10-16T12:51:53;2.95;;;1.38;;
9208;SDS011;4639;48.862;9.188;2022-10-16T13:00:14;1.98;;;1.20;;
9208;SDS011;4639;48.862;9.188;2022-10-16T13:16:25;4.75;;;1.20;;
9208;SDS011;4639;48.862;9.188;2022-10-16T13:27:37;1.67;;;1.33;;
9208;SDS011;4639;48.862;9.188;2022-10-16T13:32:38;3.55;;;1.30;;
9208;SDS011;4639;48.862;9.188;2022-10-16T13:35:15;2.65;;;1.40;;
9208;SDS011;4639;48.862;9.188;2022-10-16T13:37:44;3.33;;;1.50;;
9208;SDS011;4639;48.862;9.188;2022-10-16T13:42:46;2.30;;;1.48;;
9208;SDS011;4639;48.862;9.188;2022-10-16T13:45:23;1.30;;;1.20;;
9208;SDS011;4639;48.862;9.188;2022-10-16T13:48:05;2.33;;;1.42;;
9208;SDS011;4639;48.862;9.188;2022-10-16T13:50:34;2.05;;;1.50;;
9208;SDS011;4639;48.862;9.188;2022-10-16T13:53:03;1.65;;;1.30;;
9208;SDS011;4639;48.862;9.188;2022-10-16T13:55:30;3.15;;;1.40;;
9208;SDS011;4639;48.862;9.188;2022-10-16T13:58:13;4.15;;;1.20;;
9208;SDS011;4639;48.862;9.188;2022-10-16T14:00:39;3.28;;;1.48;;
9208;SDS011;4639;48.862;9.188;2022-10-16T14:03:17;3.30;;;1.80;;
9208;SDS011;4639;48.862;9.188;2022-10-16T14:05:55;2.55;;;1.83;;
9208;SDS011;4639;48.862;9.188;2022-10-16T14:08:24;3.00;;;1.25;;
9208;SDS011;4639;48.862;9.188;2022-10-16T14:10:55;1.35;;;1.20;;
9208;SDS011;4639;48.862;9.188;2022-10-16T14:13:30;3.45;;;1.25;;
9208;SDS011;4639;48.862;9.188;2022-10-16T14:16:00;1.92;;;1.35;;
9208;SDS011;4639;48.862;9.188;2022-10-16T14:18:31;2.33;;;1.48;;
9208;SDS011;4639;48.862;9.188;2022-10-16T14:21:02;3.47;;;1.52;;
9208;SDS011;4639;48.862;9.188;2022-10-16T14:23:30;5.03;;;1.70;;
9208;SDS011;4639;48.862;9.188;2022-10-16T14:28:34;3.88;;;1.60;;
9208;SDS011;4639;48.862;9.188;2022-10-16T14:31:00;1.95;;;1.67;;
9208;SDS011;4639;48.862;9.188;2022-10-16T14:38:25;4.05;;;1.80;;
9208;SDS011;4639;48.862;9.188;2022-10-16T14:40:50;2.92;;;1.65;;
9208;SDS011;4639;48.862;9.188;2022-10-16T14:43:24;3.67;;;1.67;;
9208;SDS011;4639;48.862;9.188;2022-10-16T14:45:57;1.73;;;1.40;;
9208;SDS011;4639;48.862;9.188;2022-10-16T14:48:23;3.95;;;1.65;;
9208;SDS011;4639;48.862;9.188;2022-10-16T14:50:50;3.45;;;1.73;;
9208;SDS011;4639;48.862;9.188;2022-10-16T14:53:15;4.63;;;1.65;;
9208;SDS011;4639;48.862;9.188;2022-10-16T14:55:41;10.48;;;2.45;;
9208;SDS011;4639;48.862;9.188;2022-10-16T14:58:17;2.95;;;2.03;;
9208;SDS011;4639;48.862;9.188;2022-10-16T15:00:46;3.88;;;1.88;;
9208;SDS011;4639;48.862;9.188;2022-10-16T15:03:12;3.50;;;1.90;;
9208;SDS011;4639;48.862;9.188;2022-10-16T15:05:38;3.65;;;1.95;;
9208;SDS011;4639;48.862;9.188;2022-10-16T15:08:03;5.07;;;2.63;;
9208;SDS011;4639;48.862;9.188;2022-10-16T15:10:33;4.57;;;2.17;;
9208;SDS011;4639;48.862;9.188;2022-10-16T15:13:03;3.45;;;1.60;;
9208;SDS011;4639;48.862;9.188;2022-10-16T15:15:36;5.72;;;1.95;;
9208;SDS011;4639;48.862;9.188;2022-10-16T15:18:05;3.17;;;1.90;;
9208;SDS011;4639;48.862;9.188;2022-10-16T15:20:32;5.15;;;1.80;;
9208;SDS011;4639;48.862;9.188;2022-10-16T15:23:00;2.33;;;1.65;;
9208;SDS011;4639;48.862;9.188;2022-10-16T15:28:06;4.15;;;1.75;;
9208;SDS011;4639;48.862;9.188;2022-10-16T15:30:33;4.68;;;2.10;;
9208;SDS011;4639;48.862;9.188;2022-10-16T15:33:00;2.95;;;1.50;;
9208;SDS011;4639;48.862;9.188;2022-10-16T15:35:27;3.00;;;1.83;;
9208;SDS011;4639;48.862;9.188;2022-10-16T15:37:53;3.88;;;1.70;;
9208;SDS011;4639;48.862;9.188;2022-10-16T15:40:19;2.67;;;1.60;;
9208;SDS011;4639;48.862;9.188;2022-10-16T15:42:45;2.92;;;1.50;;
9208;SDS011;4639;48.862;9.188;2022-10-16T15:45:11;5.25;;;1.60;;
9208;SDS011;4639;48.862;9.188;2022-10-16T15:47:37;3.17;;;1.55;;
9208;SDS011;4639;48.862;9.188;2022-10-16T15:50:04;3.58;;;1.60;;
9208;SDS011;4639;48.862;9.188;2022-10-16T15:52:30;2.20;;;1.63;;
9208;SDS011;4639;48.862;9.188;2022-10-16T15:54:56;6.13;;;2.35;;
9208;SDS011;4639;48.862;9.188;2022-10-16T15:57:22;4.50;;;1.83;;
9208;SDS011;4639;48.862;9.188;2022-10-16T15:59:50;7.88;;;2.00;;
9208;SDS011;4639;48.862;9.188;2022-10-16T16:02:15;3.10;;;1.88;;
9208;SDS011;4639;48.862;9.188;2022-10-16T16:04:41;7.25;;;2.22;;
9208;SDS011;4639;48.862;9.188;2022-10-16T16:07:06;2.47;;;2.13;;
9208;SDS011;4639;48.862;9.188;2022-10-16T16:09:32;4.45;;;2.25;;
9208;SDS011;4639;48.862;9.188;2022-10-16T16:11:58;3.45;;;2.30;;
9208;SDS011;4639;48.862;9.188;2022-10-16T16:14:27;6.93;;;2.22;;
9208;SDS011;4639;48.862;9.188;2022-10-16T16:16:53;8.82;;;2.17;;
9208;SDS011;4639;48.862;9.188;2022-10-16T16:19:19;3.58;;;1.90;;
9208;SDS011;4639;48.862;9.188;2022-10-16T16:21:46;3.42;;;1.90;;
9208;SDS011;4639;48.862;9.188;2022-10-16T16:24:12;3.00;;;1.90;;
9208;SDS011;4639;48.862;9.188;2022-10-16T16:26:37;6.18;;;2.00;;
9208;SDS011;4639;48.862;9.188;2022-10-16T16:29:08;2.20;;;2.00;;
9208;SDS011;4639;48.862;9.188;2022-10-16T16:31:39;2.35;;;2.00;;
9208;SDS011;4639;48.862;9.188;2022-10-16T16:34:05;2.53;;;1.95;;
9208;SDS011;4639;48.862;9.188;2022-10-16T16:36:31;5.00;;;1.83;;
9208;SDS011;4639;48.862;9.188;2022-10-16T16:38:57;5.55;;;1.80;;
9208;SDS011;4639;48.862;9.188;2022-10-16T16:41:23;4.43;;;1.95;;
9208;SDS011;4639;48.862;9.188;2022-10-16T16:43:52;3.05;;;2.00;;
9208;SDS011;4639;48.862;9.188;2022-10-16T16:46:18;2.70;;;1.83;;
9208;SDS011;4639;48.862;9.188;2022-10-16T16:48:45;4.78;;;1.98;;
9208;SDS011;4639;48.862;9.188;2022-10-16T16:51:12;2.95;;;2.08;;
9208;SDS011;4639;48.862;9.188;2022-10-16T16:53:41;4.75;;;1.95;;
9208;SDS011;4639;48.862;9.188;2022-10-16T16:56:09;2.50;;;1.70;;
9208;SDS011;4639;48.862;9.188;2022-10-16T16:58:35;5.53;;;2.25;;
9208;SDS011;4639;48.862;9.188;2022-10-16T17:01:01;3.25;;;2.13;;
9208;SDS011;4639;48.862;9.188;2022-10-16T17:03:30;8.23;;;2.83;;
9208;SDS011;4639;48.862;9.188;2022-10-16T17:05:58;4.05;;;2.55;;
9208;SDS011;4639;48.862;9.188;2022-10-16T17:08:25;4.18;;;2.28;;
9208;SDS011;4639;48.862;9.188;2022-10-16T17:10:51;5.15;;;2.50;;
9208;SDS011;4639;48.862;9.188;2022-10-16T17:13:20;5.05;;;2.83;;
9208;SDS011;4639;48.862;9.188;2022-10-16T17:15:47;8.25;;;3.30;;
9208;SDS011;4639;48.862;9.188;2022-10-16T17:18:14;4.57;;;3.30;;
9208;SDS011;4639;48.862;9.188;2022-10-16T17:20:40;6.13;;;4.15;;
9208;SDS011;4639;48.862;9.188;2022-10-16T17:23:06;6.43;;;4.00;;
9208;SDS011;4639;48.862;9.188;2022-10-16T17:25:35;9.20;;;3.63;;
9208;SDS011;4639;48.862;9.188;2022-10-16T17:28:01;7.47;;;4.32;;
9208;SDS011;4639;48.862;9.188;2022-10-16T17:30:26;5.18;;;3.42;;
9208;SDS011;4639;48.862;9.188;2022-10-16T17:32:52;3.72;;;3.00;;
9208;SDS011;4639;48.862;9.188;2022-10-16T17:35:18;6.65;;;2.97;;
9208;SDS011;4639;48.862;9.188;2022-10-16T17:37:43;6.55;;;3.05;;
9208;SDS011;4639;48.862;9.188;2022-10-16T17:40:09;3.42;;;2.80;;
9208;SDS011;4639;48.862;9.188;2022-10-16T17:42:35;8.05;;;2.67;;
9208;SDS011;4639;48.862;9.188;2022-10-16T17:45:03;5.85;;;2.97;;
9208;SDS011;4639;48.862;9.188;2022-10-16T17:47:29;7.57;;;2.90;;